Alley Springs, MO

10:59 AM CST on December 22, 2014 (GMT -0600)
Country | Change Station
CLOSE
Current Station
Personal Weather Station
Location: Elk Creek, MO
Elevation: 1332 ft
Nearby Weather Stations

Elev 1332 ft 37.15 °N, 91.91 °W | Updated 2 minutes ago

Rain
Rain
45.0 °F
Feels Like 43 °F
N
4.0
Wind Variable Wind from South
Gusts 15.0 mph

Today
High -- | Low -- °F
--% Chance of Precip.
Yesterday
High -- | Low -- °F
Precip. -- in
7:16 AM 4:52 PM
New Moon, 1% visible
Pressure 29.66 in
Visibility 4.0 miles
Clouds Overcast 200 ft
Windchill 43 °F
Dew Point 42 °F
Humidity 89%
Rainfall 0.11 in
Snow Depth Not available.
UV 1 out of 12
Pollen 5.20 out of 12
Air Quality Not available.
Flu Activity Not available.
METAR KUNO 221653Z AUTO 18009KT 4SM BR OVC002 08/07 A2966 RMK AO2 RAE42 SLP044 P0002 T00780067

More Conditions Fewer Conditions

Pressure 29.66 in
Visibility 4.0 miles
Clouds Overcast 200 ft
Windchill 43 °F
Dew Point 42 °F
Humidity 89%
Rainfall 0.11 in
Snow Depth Not available.
UV 1 out of 12
Pollen 5.20 out of 12
Air Quality Not available.
Flu Activity Not available.
METAR KUNO 221653Z AUTO 18009KT 4SM BR OVC002 08/07 A2966 RMK AO2 RAE42 SLP044 P0002 T00780067

More Conditions Fewer Conditions

10-Day Weather Forecast

Almanac

Astronomy

Dec. 22, 2014 Rise Set
Actual Time
Civil Twilight
Nautical Twilight
Astronomical Twilight
Moon
Length of Visible Light
Length of Day
Tomorrow will be .
, % of the Moon is Illuminated

Today's Extremes

State Highs State Lows

Community

WunderPhotos

Upload Photos

1,779,641 photos uploaded!

WunderBlogs® & News

Nearby

Air Quality

  Air Quality AQ Index Pollutant
Not available.

Snow Depth

Station Depth Elevation

Earthquake Activity

City Distance Mag. Time & Date
Minimum magnitude displayed is 2.5.

Coastal Water Temperatures

Place Temperature

Nearby Weather Stations